sensor_id;sensor_type;location;lat;lon;timestamp;P1;durP1;ratioP1;P2;durP2;ratioP2
20497;SDS011;10407;53.238;10.448;2022-11-13T00:01:14;18.57;;;10.00;;
20497;SDS011;10407;53.238;10.448;2022-11-13T00:03:47;12.70;;;9.03;;
20497;SDS011;10407;53.238;10.448;2022-11-13T00:06:15;15.20;;;10.63;;
20497;SDS011;10407;53.238;10.448;2022-11-13T00:08:43;17.30;;;10.33;;
20497;SDS011;10407;53.238;10.448;2022-11-13T00:11:13;17.93;;;11.30;;
20497;SDS011;10407;53.238;10.448;2022-11-13T00:13:43;15.10;;;9.73;;
20497;SDS011;10407;53.238;10.448;2022-11-13T00:16:11;24.20;;;10.33;;
20497;SDS011;10407;53.238;10.448;2022-11-13T00:18:41;17.00;;;10.23;;
20497;SDS011;10407;53.238;10.448;2022-11-13T00:23:45;15.70;;;10.23;;
20497;SDS011;10407;53.238;10.448;2022-11-13T00:26:14;16.17;;;10.37;;
20497;SDS011;10407;53.238;10.448;2022-11-13T00:28:44;17.03;;;10.83;;
20497;SDS011;10407;53.238;10.448;2022-11-13T00:31:13;16.60;;;10.63;;
20497;SDS011;10407;53.238;10.448;2022-11-13T00:33:41;16.83;;;10.17;;
20497;SDS011;10407;53.238;10.448;2022-11-13T00:36:19;14.30;;;9.77;;
20497;SDS011;10407;53.238;10.448;2022-11-13T00:38:48;14.90;;;9.80;;
20497;SDS011;10407;53.238;10.448;2022-11-13T00:41:16;13.70;;;9.00;;
20497;SDS011;10407;53.238;10.448;2022-11-13T00:43:44;17.40;;;10.43;;
20497;SDS011;10407;53.238;10.448;2022-11-13T00:46:11;18.53;;;10.93;;
20497;SDS011;10407;53.238;10.448;2022-11-13T00:48:39;16.07;;;10.73;;
20497;SDS011;10407;53.238;10.448;2022-11-13T00:51:06;13.90;;;9.27;;
20497;SDS011;10407;53.238;10.448;2022-11-13T00:53:34;17.30;;;11.20;;
20497;SDS011;10407;53.238;10.448;2022-11-13T00:56:02;14.83;;;9.90;;
20497;SDS011;10407;53.238;10.448;2022-11-13T00:58:29;14.97;;;10.13;;
20497;SDS011;10407;53.238;10.448;2022-11-13T01:01:02;19.53;;;9.90;;
20497;SDS011;10407;53.238;10.448;2022-11-13T01:03:33;17.63;;;11.10;;
20497;SDS011;10407;53.238;10.448;2022-11-13T01:06:07;19.30;;;10.93;;
20497;SDS011;10407;53.238;10.448;2022-11-13T01:08:37;14.97;;;10.20;;
20497;SDS011;10407;53.238;10.448;2022-11-13T01:11:11;16.80;;;10.53;;
20497;SDS011;10407;53.238;10.448;2022-11-13T01:13:41;14.07;;;9.60;;
20497;SDS011;10407;53.238;10.448;2022-11-13T01:16:11;18.00;;;10.80;;
20497;SDS011;10407;53.238;10.448;2022-11-13T01:18:40;17.27;;;10.57;;
20497;SDS011;10407;53.238;10.448;2022-11-13T01:21:09;17.50;;;11.13;;
20497;SDS011;10407;53.238;10.448;2022-11-13T01:23:38;17.50;;;10.33;;
20497;SDS011;10407;53.238;10.448;2022-11-13T01:28:37;18.53;;;10.83;;
20497;SDS011;10407;53.238;10.448;2022-11-13T01:31:07;17.27;;;11.00;;
20497;SDS011;10407;53.238;10.448;2022-11-13T01:33:36;14.63;;;10.03;;
20497;SDS011;10407;53.238;10.448;2022-11-13T01:36:07;19.43;;;10.50;;
20497;SDS011;10407;53.238;10.448;2022-11-13T01:38:45;16.37;;;11.20;;
20497;SDS011;10407;53.238;10.448;2022-11-13T01:41:18;16.60;;;10.93;;
20497;SDS011;10407;53.238;10.448;2022-11-13T01:43:47;17.20;;;11.00;;
20497;SDS011;10407;53.238;10.448;2022-11-13T01:46:19;17.90;;;11.53;;
20497;SDS011;10407;53.238;10.448;2022-11-13T01:49:46;15.00;;;9.73;;
20497;SDS011;10407;53.238;10.448;2022-11-13T01:51:53;16.30;;;11.00;;
20497;SDS011;10407;53.238;10.448;2022-11-13T01:54:30;19.37;;;12.53;;
20497;SDS011;10407;53.238;10.448;2022-11-13T01:56:59;17.00;;;10.90;;
20497;SDS011;10407;53.238;10.448;2022-11-13T01:59:29;18.07;;;10.13;;
20497;SDS011;10407;53.238;10.448;2022-11-13T02:01:59;15.47;;;9.97;;
20497;SDS011;10407;53.238;10.448;2022-11-13T02:04:27;17.10;;;11.40;;
20497;SDS011;10407;53.238;10.448;2022-11-13T02:06:58;16.23;;;9.90;;
20497;SDS011;10407;53.238;10.448;2022-11-13T02:09:40;17.33;;;9.63;;
20497;SDS011;10407;53.238;10.448;2022-11-13T02:12:11;19.83;;;10.40;;
20497;SDS011;10407;53.238;10.448;2022-11-13T02:14:42;16.60;;;10.70;;
20497;SDS011;10407;53.238;10.448;2022-11-13T02:17:15;16.93;;;10.57;;
20497;SDS011;10407;53.238;10.448;2022-11-13T02:19:46;14.33;;;9.93;;
20497;SDS011;10407;53.238;10.448;2022-11-13T02:25:08;19.90;;;11.33;;
20497;SDS011;10407;53.238;10.448;2022-11-13T02:27:42;16.63;;;11.47;;
20497;SDS011;10407;53.238;10.448;2022-11-13T02:30:17;18.10;;;10.50;;
20497;SDS011;10407;53.238;10.448;2022-11-13T02:32:48;21.03;;;12.30;;
20497;SDS011;10407;53.238;10.448;2022-11-13T02:35:18;17.00;;;10.30;;
20497;SDS011;10407;53.238;10.448;2022-11-13T02:37:54;16.70;;;10.20;;
20497;SDS011;10407;53.238;10.448;2022-11-13T02:40:24;15.03;;;9.93;;
20497;SDS011;10407;53.238;10.448;2022-11-13T02:42:52;16.03;;;10.53;;
20497;SDS011;10407;53.238;10.448;2022-11-13T02:45:19;13.50;;;10.10;;
20497;SDS011;10407;53.238;10.448;2022-11-13T02:47:47;20.17;;;10.27;;
20497;SDS011;10407;53.238;10.448;2022-11-13T02:50:15;16.17;;;10.10;;
20497;SDS011;10407;53.238;10.448;2022-11-13T02:52:43;12.63;;;9.30;;
20497;SDS011;10407;53.238;10.448;2022-11-13T02:55:10;12.93;;;9.30;;
20497;SDS011;10407;53.238;10.448;2022-11-13T02:57:38;17.10;;;11.40;;
20497;SDS011;10407;53.238;10.448;2022-11-13T03:00:05;20.47;;;12.33;;
20497;SDS011;10407;53.238;10.448;2022-11-13T03:02:34;17.63;;;12.20;;
20497;SDS011;10407;53.238;10.448;2022-11-13T03:05:01;20.40;;;11.90;;
20497;SDS011;10407;53.238;10.448;2022-11-13T03:07:29;22.17;;;12.57;;
20497;SDS011;10407;53.238;10.448;2022-11-13T03:09:56;21.67;;;12.70;;
20497;SDS011;10407;53.238;10.448;2022-11-13T03:12:24;22.30;;;13.57;;
20497;SDS011;10407;53.238;10.448;2022-11-13T03:14:51;20.57;;;12.73;;
20497;SDS011;10407;53.238;10.448;2022-11-13T03:17:19;19.83;;;11.97;;
20497;SDS011;10407;53.238;10.448;2022-11-13T03:19:46;20.70;;;12.13;;
20497;SDS011;10407;53.238;10.448;2022-11-13T03:22:14;20.80;;;12.67;;
20497;SDS011;10407;53.238;10.448;2022-11-13T03:24:42;24.10;;;13.90;;
20497;SDS011;10407;53.238;10.448;2022-11-13T03:27:09;22.87;;;12.90;;
20497;SDS011;10407;53.238;10.448;2022-11-13T03:29:36;20.80;;;12.87;;
20497;SDS011;10407;53.238;10.448;2022-11-13T03:32:04;21.43;;;13.27;;
20497;SDS011;10407;53.238;10.448;2022-11-13T03:34:32;24.83;;;14.10;;
20497;SDS011;10407;53.238;10.448;2022-11-13T03:36:59;22.70;;;14.00;;
20497;SDS011;10407;53.238;10.448;2022-11-13T03:39:27;22.30;;;13.17;;
20497;SDS011;10407;53.238;10.448;2022-11-13T03:41:55;23.10;;;13.83;;
20497;SDS011;10407;53.238;10.448;2022-11-13T03:44:23;20.53;;;13.63;;
20497;SDS011;10407;53.238;10.448;2022-11-13T03:46:50;20.20;;;13.80;;
20497;SDS011;10407;53.238;10.448;2022-11-13T03:49:18;21.73;;;12.90;;
20497;SDS011;10407;53.238;10.448;2022-11-13T03:51:45;22.50;;;14.40;;
20497;SDS011;10407;53.238;10.448;2022-11-13T03:54:13;26.60;;;15.43;;
20497;SDS011;10407;53.238;10.448;2022-11-13T03:56:40;23.23;;;14.90;;
20497;SDS011;10407;53.238;10.448;2022-11-13T03:59:08;25.17;;;13.60;;
20497;SDS011;10407;53.238;10.448;2022-11-13T04:01:35;27.77;;;14.57;;
20497;SDS011;10407;53.238;10.448;2022-11-13T04:04:03;20.67;;;13.07;;
20497;SDS011;10407;53.238;10.448;2022-11-13T04:06:31;25.33;;;14.30;;
20497;SDS011;10407;53.238;10.448;2022-11-13T04:08:58;25.50;;;13.90;;
20497;SDS011;10407;53.238;10.448;2022-11-13T04:11:26;23.83;;;14.73;;
20497;SDS011;10407;53.238;10.448;2022-11-13T04:13:53;22.60;;;13.97;;
20497;SDS011;10407;53.238;10.448;2022-11-13T04:16:21;22.50;;;14.50;;
20497;SDS011;10407;53.238;10.448;2022-11-13T04:18:48;22.20;;;13.93;;
20497;SDS011;10407;53.238;10.448;2022-11-13T04:21:16;26.50;;;14.90;;
20497;SDS011;10407;53.238;10.448;2022-11-13T04:23:43;22.40;;;13.53;;
20497;SDS011;10407;53.238;10.448;2022-11-13T04:26:11;23.73;;;15.43;;
20497;SDS011;10407;53.238;10.448;2022-11-13T04:28:38;22.80;;;13.80;;
20497;SDS011;10407;53.238;10.448;2022-11-13T04:31:06;20.90;;;13.50;;
20497;SDS011;10407;53.238;10.448;2022-11-13T04:33:33;23.53;;;13.07;;
20497;SDS011;10407;53.238;10.448;2022-11-13T04:36:01;29.43;;;15.10;;
20497;SDS011;10407;53.238;10.448;2022-11-13T04:38:28;22.83;;;14.20;;
20497;SDS011;10407;53.238;10.448;2022-11-13T04:40:56;26.53;;;13.90;;
20497;SDS011;10407;53.238;10.448;2022-11-13T04:43:41;24.77;;;13.60;;
20497;SDS011;10407;53.238;10.448;2022-11-13T04:46:09;27.87;;;15.60;;
20497;SDS011;10407;53.238;10.448;2022-11-13T04:48:36;25.10;;;14.90;;
20497;SDS011;10407;53.238;10.448;2022-11-13T04:51:04;26.00;;;15.43;;
20497;SDS011;10407;53.238;10.448;2022-11-13T04:53:31;23.70;;;14.63;;
20497;SDS011;10407;53.238;10.448;2022-11-13T04:55:59;26.70;;;14.60;;
20497;SDS011;10407;53.238;10.448;2022-11-13T04:58:27;22.30;;;13.47;;
20497;SDS011;10407;53.238;10.448;2022-11-13T05:00:54;22.83;;;14.50;;
20497;SDS011;10407;53.238;10.448;2022-11-13T05:03:22;22.20;;;15.53;;
20497;SDS011;10407;53.238;10.448;2022-11-13T05:05:49;22.63;;;13.47;;
20497;SDS011;10407;53.238;10.448;2022-11-13T05:08:17;23.53;;;12.90;;
20497;SDS011;10407;53.238;10.448;2022-11-13T05:10:44;24.53;;;13.97;;
20497;SDS011;10407;53.238;10.448;2022-11-13T05:13:12;20.07;;;12.87;;
20497;SDS011;10407;53.238;10.448;2022-11-13T05:15:39;26.53;;;13.40;;
20497;SDS011;10407;53.238;10.448;2022-11-13T05:18:06;22.00;;;12.90;;
20497;SDS011;10407;53.238;10.448;2022-11-13T05:20:34;20.20;;;12.37;;
20497;SDS011;10407;53.238;10.448;2022-11-13T05:23:01;20.97;;;14.10;;
20497;SDS011;10407;53.238;10.448;2022-11-13T05:25:29;22.37;;;13.20;;
20497;SDS011;10407;53.238;10.448;2022-11-13T05:27:57;19.50;;;12.73;;
20497;SDS011;10407;53.238;10.448;2022-11-13T05:30:25;20.03;;;10.80;;
20497;SDS011;10407;53.238;10.448;2022-11-13T05:32:52;16.37;;;11.20;;
20497;SDS011;10407;53.238;10.448;2022-11-13T05:35:20;19.60;;;10.87;;
20497;SDS011;10407;53.238;10.448;2022-11-13T05:37:47;23.63;;;11.20;;
20497;SDS011;10407;53.238;10.448;2022-11-13T05:40:15;17.80;;;11.30;;
20497;SDS011;10407;53.238;10.448;2022-11-13T05:42:42;18.57;;;11.60;;
20497;SDS011;10407;53.238;10.448;2022-11-13T05:45:10;23.37;;;12.70;;
20497;SDS011;10407;53.238;10.448;2022-11-13T05:47:37;21.27;;;12.50;;
20497;SDS011;10407;53.238;10.448;2022-11-13T05:50:05;16.60;;;11.30;;
20497;SDS011;10407;53.238;10.448;2022-11-13T05:52:33;23.00;;;13.00;;
20497;SDS011;10407;53.238;10.448;2022-11-13T05:55:00;22.17;;;13.20;;
20497;SDS011;10407;53.238;10.448;2022-11-13T05:57:28;22.90;;;13.80;;
20497;SDS011;10407;53.238;10.448;2022-11-13T05:59:55;25.30;;;14.30;;
20497;SDS011;10407;53.238;10.448;2022-11-13T06:02:23;25.67;;;14.40;;
20497;SDS011;10407;53.238;10.448;2022-11-13T06:04:51;25.77;;;16.33;;
20497;SDS011;10407;53.238;10.448;2022-11-13T06:07:18;26.93;;;14.27;;
20497;SDS011;10407;53.238;10.448;2022-11-13T06:09:46;26.83;;;14.83;;
20497;SDS011;10407;53.238;10.448;2022-11-13T06:12:13;26.30;;;15.07;;
20497;SDS011;10407;53.238;10.448;2022-11-13T06:14:41;26.40;;;14.43;;
20497;SDS011;10407;53.238;10.448;2022-11-13T06:17:08;27.43;;;16.30;;
20497;SDS011;10407;53.238;10.448;2022-11-13T06:19:35;34.47;;;15.17;;
20497;SDS011;10407;53.238;10.448;2022-11-13T06:22:03;30.00;;;15.40;;
20497;SDS011;10407;53.238;10.448;2022-11-13T06:24:30;24.03;;;14.33;;
20497;SDS011;10407;53.238;10.448;2022-11-13T06:26:58;23.80;;;15.37;;
20497;SDS011;10407;53.238;10.448;2022-11-13T06:29:25;24.17;;;14.20;;
20497;SDS011;10407;53.238;10.448;2022-11-13T06:31:53;24.90;;;15.40;;
20497;SDS011;10407;53.238;10.448;2022-11-13T06:34:20;28.97;;;16.00;;
20497;SDS011;10407;53.238;10.448;2022-11-13T06:36:48;27.50;;;16.80;;
20497;SDS011;10407;53.238;10.448;2022-11-13T06:39:15;22.90;;;15.10;;
20497;SDS011;10407;53.238;10.448;2022-11-13T06:41:43;23.70;;;15.83;;
20497;SDS011;10407;53.238;10.448;2022-11-13T06:44:10;27.83;;;16.77;;
20497;SDS011;10407;53.238;10.448;2022-11-13T06:46:38;25.43;;;14.27;;
20497;SDS011;10407;53.238;10.448;2022-11-13T06:49:06;25.00;;;15.17;;
20497;SDS011;10407;53.238;10.448;2022-11-13T06:51:33;33.90;;;14.73;;
20497;SDS011;10407;53.238;10.448;2022-11-13T06:54:01;27.10;;;15.80;;
20497;SDS011;10407;53.238;10.448;2022-11-13T06:56:28;28.43;;;16.07;;
20497;SDS011;10407;53.238;10.448;2022-11-13T06:58:56;25.93;;;15.40;;
20497;SDS011;10407;53.238;10.448;2022-11-13T07:01:24;30.30;;;15.80;;
20497;SDS011;10407;53.238;10.448;2022-11-13T07:03:52;25.80;;;14.47;;
20497;SDS011;10407;53.238;10.448;2022-11-13T07:06:21;25.03;;;14.30;;
20497;SDS011;10407;53.238;10.448;2022-11-13T07:08:50;25.50;;;14.07;;
20497;SDS011;10407;53.238;10.448;2022-11-13T07:11:19;20.37;;;12.90;;
20497;SDS011;10407;53.238;10.448;2022-11-13T07:13:48;20.20;;;12.93;;
20497;SDS011;10407;53.238;10.448;2022-11-13T07:16:16;25.67;;;13.30;;
20497;SDS011;10407;53.238;10.448;2022-11-13T07:18:54;47.03;;;15.80;;
20497;SDS011;10407;53.238;10.448;2022-11-13T07:21:19;23.67;;;13.67;;
20497;SDS011;10407;53.238;10.448;2022-11-13T07:23:48;23.30;;;12.80;;
20497;SDS011;10407;53.238;10.448;2022-11-13T07:26:15;25.07;;;14.23;;
20497;SDS011;10407;53.238;10.448;2022-11-13T07:28:43;27.37;;;15.00;;
20497;SDS011;10407;53.238;10.448;2022-11-13T07:31:12;33.87;;;18.50;;
20497;SDS011;10407;53.238;10.448;2022-11-13T07:33:41;46.80;;;23.60;;
20497;SDS011;10407;53.238;10.448;2022-11-13T07:36:09;35.07;;;19.60;;
20497;SDS011;10407;53.238;10.448;2022-11-13T07:38:37;37.50;;;16.43;;
20497;SDS011;10407;53.238;10.448;2022-11-13T07:41:05;32.50;;;16.83;;
20497;SDS011;10407;53.238;10.448;2022-11-13T07:43:33;39.10;;;18.63;;
20497;SDS011;10407;53.238;10.448;2022-11-13T07:46:01;35.30;;;18.07;;
20497;SDS011;10407;53.238;10.448;2022-11-13T07:48:29;36.93;;;17.13;;
20497;SDS011;10407;53.238;10.448;2022-11-13T07:50:59;34.87;;;16.90;;
20497;SDS011;10407;53.238;10.448;2022-11-13T07:53:28;30.37;;;16.17;;
20497;SDS011;10407;53.238;10.448;2022-11-13T07:55:58;36.20;;;18.67;;
20497;SDS011;10407;53.238;10.448;2022-11-13T07:58:28;34.17;;;17.60;;
20497;SDS011;10407;53.238;10.448;2022-11-13T08:01:05;38.10;;;18.70;;
20497;SDS011;10407;53.238;10.448;2022-11-13T08:03:30;32.60;;;17.70;;
20497;SDS011;10407;53.238;10.448;2022-11-13T08:06:02;32.33;;;16.67;;
20497;SDS011;10407;53.238;10.448;2022-11-13T08:08:30;40.70;;;18.30;;
20497;SDS011;10407;53.238;10.448;2022-11-13T08:11:02;33.73;;;17.63;;
20497;SDS011;10407;53.238;10.448;2022-11-13T08:13:35;38.90;;;19.70;;
20497;SDS011;10407;53.238;10.448;2022-11-13T08:16:03;35.37;;;17.10;;
20497;SDS011;10407;53.238;10.448;2022-11-13T08:18:31;32.27;;;16.70;;
20497;SDS011;10407;53.238;10.448;2022-11-13T08:20:59;26.83;;;15.40;;
20497;SDS011;10407;53.238;10.448;2022-11-13T08:23:29;39.83;;;18.63;;
20497;SDS011;10407;53.238;10.448;2022-11-13T08:25:57;41.40;;;19.13;;
20497;SDS011;10407;53.238;10.448;2022-11-13T08:28:24;25.30;;;13.27;;
20497;SDS011;10407;53.238;10.448;2022-11-13T08:30:52;33.60;;;16.60;;
20497;SDS011;10407;53.238;10.448;2022-11-13T08:33:19;29.17;;;15.07;;
20497;SDS011;10407;53.238;10.448;2022-11-13T08:35:57;31.40;;;16.57;;
20497;SDS011;10407;53.238;10.448;2022-11-13T08:38:25;32.50;;;16.87;;
20497;SDS011;10407;53.238;10.448;2022-11-13T08:40:57;36.00;;;17.47;;
20497;SDS011;10407;53.238;10.448;2022-11-13T08:43:23;36.47;;;19.53;;
20497;SDS011;10407;53.238;10.448;2022-11-13T08:45:52;30.10;;;15.20;;
20497;SDS011;10407;53.238;10.448;2022-11-13T08:48:20;34.53;;;17.80;;
20497;SDS011;10407;53.238;10.448;2022-11-13T08:50:52;36.30;;;17.33;;
20497;SDS011;10407;53.238;10.448;2022-11-13T08:53:21;35.30;;;17.37;;
20497;SDS011;10407;53.238;10.448;2022-11-13T08:55:49;34.77;;;17.97;;
20497;SDS011;10407;53.238;10.448;2022-11-13T08:58:17;31.47;;;16.33;;
20497;SDS011;10407;53.238;10.448;2022-11-13T09:00:45;32.63;;;18.10;;
20497;SDS011;10407;53.238;10.448;2022-11-13T09:03:14;31.87;;;17.53;;
20497;SDS011;10407;53.238;10.448;2022-11-13T09:05:41;35.90;;;18.17;;
20497;SDS011;10407;53.238;10.448;2022-11-13T09:08:09;34.10;;;17.60;;
20497;SDS011;10407;53.238;10.448;2022-11-13T09:10:36;39.43;;;19.17;;
20497;SDS011;10407;53.238;10.448;2022-11-13T09:13:04;33.37;;;17.33;;
20497;SDS011;10407;53.238;10.448;2022-11-13T09:15:35;30.40;;;15.00;;
20497;SDS011;10407;53.238;10.448;2022-11-13T09:18:04;36.67;;;18.77;;
20497;SDS011;10407;53.238;10.448;2022-11-13T09:20:32;33.37;;;18.20;;
20497;SDS011;10407;53.238;10.448;2022-11-13T09:23:05;30.00;;;17.10;;
20497;SDS011;10407;53.238;10.448;2022-11-13T09:25:30;35.90;;;18.63;;
20497;SDS011;10407;53.238;10.448;2022-11-13T09:28:00;30.13;;;16.50;;
20497;SDS011;10407;53.238;10.448;2022-11-13T09:30:29;26.10;;;15.00;;
20497;SDS011;10407;53.238;10.448;2022-11-13T09:32:57;28.23;;;17.27;;
20497;SDS011;10407;53.238;10.448;2022-11-13T09:35:26;29.53;;;16.63;;
20497;SDS011;10407;53.238;10.448;2022-11-13T09:38:06;48.47;;;20.00;;
20497;SDS011;10407;53.238;10.448;2022-11-13T09:40:46;34.17;;;18.53;;
20497;SDS011;10407;53.238;10.448;2022-11-13T09:44:01;27.47;;;16.70;;
20497;SDS011;10407;53.238;10.448;2022-11-13T09:45:47;37.17;;;17.60;;
20497;SDS011;10407;53.238;10.448;2022-11-13T09:48:33;34.07;;;17.83;;
20497;SDS011;10407;53.238;10.448;2022-11-13T09:51:15;32.30;;;16.03;;
20497;SDS011;10407;53.238;10.448;2022-11-13T09:53:44;34.73;;;17.30;;
20497;SDS011;10407;53.238;10.448;2022-11-13T09:59:32;33.47;;;16.43;;
20497;SDS011;10407;53.238;10.448;2022-11-13T10:01:57;31.23;;;15.90;;
20497;SDS011;10407;53.238;10.448;2022-11-13T10:04:45;31.27;;;15.70;;
20497;SDS011;10407;53.238;10.448;2022-11-13T10:10:12;32.20;;;15.30;;
20497;SDS011;10407;53.238;10.448;2022-11-13T10:12:53;31.40;;;16.53;;
20497;SDS011;10407;53.238;10.448;2022-11-13T10:15:23;31.43;;;16.33;;
20497;SDS011;10407;53.238;10.448;2022-11-13T10:18:04;29.60;;;16.23;;
20497;SDS011;10407;53.238;10.448;2022-11-13T10:20:48;33.13;;;17.70;;
20497;SDS011;10407;53.238;10.448;2022-11-13T10:23:19;35.10;;;19.67;;
20497;SDS011;10407;53.238;10.448;2022-11-13T10:25:49;32.47;;;16.90;;
20497;SDS011;10407;53.238;10.448;2022-11-13T10:28:18;39.80;;;20.33;;
20497;SDS011;10407;53.238;10.448;2022-11-13T10:30:49;37.27;;;17.77;;
20497;SDS011;10407;53.238;10.448;2022-11-13T10:33:17;36.73;;;20.70;;
20497;SDS011;10407;53.238;10.448;2022-11-13T10:35:49;45.70;;;22.87;;
20497;SDS011;10407;53.238;10.448;2022-11-13T10:38:34;34.60;;;19.50;;
20497;SDS011;10407;53.238;10.448;2022-11-13T10:41:11;42.50;;;22.07;;
20497;SDS011;10407;53.238;10.448;2022-11-13T10:44:00;43.53;;;24.67;;
20497;SDS011;10407;53.238;10.448;2022-11-13T10:46:27;45.83;;;22.87;;
20497;SDS011;10407;53.238;10.448;2022-11-13T10:51:44;43.57;;;24.30;;
20497;SDS011;10407;53.238;10.448;2022-11-13T10:56:57;34.60;;;19.83;;
20497;SDS011;10407;53.238;10.448;2022-11-13T10:59:36;39.27;;;22.80;;
20497;SDS011;10407;53.238;10.448;2022-11-13T11:02:06;34.53;;;19.77;;
20497;SDS011;10407;53.238;10.448;2022-11-13T11:04:27;27.70;;;17.67;;
20497;SDS011;10407;53.238;10.448;2022-11-13T11:07:02;33.03;;;18.80;;
20497;SDS011;10407;53.238;10.448;2022-11-13T11:09:26;36.17;;;21.23;;
20497;SDS011;10407;53.238;10.448;2022-11-13T11:11:56;35.10;;;19.40;;
20497;SDS011;10407;53.238;10.448;2022-11-13T11:20:09;43.10;;;24.93;;
20497;SDS011;10407;53.238;10.448;2022-11-13T11:22:45;42.97;;;23.10;;
20497;SDS011;10407;53.238;10.448;2022-11-13T11:30:52;36.60;;;21.63;;
20497;SDS011;10407;53.238;10.448;2022-11-13T11:33:35;37.07;;;20.30;;
20497;SDS011;10407;53.238;10.448;2022-11-13T11:39:06;38.10;;;21.47;;
20497;SDS011;10407;53.238;10.448;2022-11-13T11:41:37;34.73;;;19.40;;
20497;SDS011;10407;53.238;10.448;2022-11-13T11:44:12;35.90;;;20.17;;
20497;SDS011;10407;53.238;10.448;2022-11-13T11:46:39;40.63;;;22.13;;
20497;SDS011;10407;53.238;10.448;2022-11-13T11:49:07;34.90;;;20.43;;
20497;SDS011;10407;53.238;10.448;2022-11-13T11:56:56;38.30;;;21.50;;
20497;SDS011;10407;53.238;10.448;2022-11-13T11:59:42;28.97;;;17.20;;
20497;SDS011;10407;53.238;10.448;2022-11-13T12:05:20;35.90;;;18.07;;
20497;SDS011;10407;53.238;10.448;2022-11-13T12:10:45;30.37;;;18.57;;
20497;SDS011;10407;53.238;10.448;2022-11-13T12:13:21;37.30;;;20.40;;
20497;SDS011;10407;53.238;10.448;2022-11-13T12:19:02;29.43;;;16.50;;
20497;SDS011;10407;53.238;10.448;2022-11-13T12:29:54;32.50;;;19.80;;
20497;SDS011;10407;53.238;10.448;2022-11-13T12:32:38;30.00;;;19.57;;
20497;SDS011;10407;53.238;10.448;2022-11-13T12:35:07;31.30;;;18.27;;
20497;SDS011;10407;53.238;10.448;2022-11-13T12:43:26;33.77;;;16.50;;
20497;SDS011;10407;53.238;10.448;2022-11-13T12:45:53;30.63;;;18.53;;
20497;SDS011;10407;53.238;10.448;2022-11-13T12:48:33;29.60;;;16.53;;
20497;SDS011;10407;53.238;10.448;2022-11-13T12:51:04;29.80;;;15.30;;
20497;SDS011;10407;53.238;10.448;2022-11-13T12:53:45;27.97;;;14.57;;
20497;SDS011;10407;53.238;10.448;2022-11-13T12:56:15;34.77;;;20.77;;
20497;SDS011;10407;53.238;10.448;2022-11-13T12:58:51;34.17;;;18.67;;
20497;SDS011;10407;53.238;10.448;2022-11-13T13:01:21;33.17;;;18.80;;
20497;SDS011;10407;53.238;10.448;2022-11-13T13:06:52;45.13;;;23.93;;
20497;SDS011;10407;53.238;10.448;2022-11-13T13:09:32;37.30;;;20.80;;
20497;SDS011;10407;53.238;10.448;2022-11-13T13:12:14;41.77;;;23.90;;
20497;SDS011;10407;53.238;10.448;2022-11-13T13:17:37;41.20;;;23.30;;
20497;SDS011;10407;53.238;10.448;2022-11-13T13:20:28;30.73;;;18.97;;
20497;SDS011;10407;53.238;10.448;2022-11-13T13:22:53;41.40;;;22.10;;
20497;SDS011;10407;53.238;10.448;2022-11-13T13:28:02;40.60;;;22.40;;
20497;SDS011;10407;53.238;10.448;2022-11-13T13:36:09;46.57;;;23.33;;
20497;SDS011;10407;53.238;10.448;2022-11-13T13:38:44;43.17;;;23.63;;
20497;SDS011;10407;53.238;10.448;2022-11-13T13:41:17;40.87;;;22.33;;
20497;SDS011;10407;53.238;10.448;2022-11-13T13:46:50;45.37;;;24.67;;
20497;SDS011;10407;53.238;10.448;2022-11-13T13:49:20;44.97;;;23.90;;
20497;SDS011;10407;53.238;10.448;2022-11-13T13:51:50;43.90;;;23.20;;
20497;SDS011;10407;53.238;10.448;2022-11-13T13:54:26;46.33;;;25.47;;
20497;SDS011;10407;53.238;10.448;2022-11-13T13:56:51;40.33;;;21.77;;
20497;SDS011;10407;53.238;10.448;2022-11-13T13:59:31;39.63;;;20.10;;
20497;SDS011;10407;53.238;10.448;2022-11-13T14:01:57;49.97;;;26.70;;
20497;SDS011;10407;53.238;10.448;2022-11-13T14:04:33;46.37;;;23.93;;
20497;SDS011;10407;53.238;10.448;2022-11-13T14:07:04;45.43;;;23.40;;
20497;SDS011;10407;53.238;10.448;2022-11-13T14:09:33;36.17;;;19.47;;
20497;SDS011;10407;53.238;10.448;2022-11-13T14:12:02;48.13;;;25.60;;
20497;SDS011;10407;53.238;10.448;2022-11-13T14:17:22;45.90;;;24.53;;
20497;SDS011;10407;53.238;10.448;2022-11-13T14:19:51;49.20;;;22.77;;
20497;SDS011;10407;53.238;10.448;2022-11-13T14:22:20;43.17;;;23.40;;
20497;SDS011;10407;53.238;10.448;2022-11-13T14:24:55;38.00;;;23.10;;
20497;SDS011;10407;53.238;10.448;2022-11-13T14:27:24;39.60;;;22.20;;
20497;SDS011;10407;53.238;10.448;2022-11-13T14:29:57;37.23;;;20.30;;
20497;SDS011;10407;53.238;10.448;2022-11-13T14:32:37;41.43;;;21.73;;
20497;SDS011;10407;53.238;10.448;2022-11-13T14:35:00;40.83;;;21.20;;
20497;SDS011;10407;53.238;10.448;2022-11-13T14:40:12;37.70;;;21.57;;
20497;SDS011;10407;53.238;10.448;2022-11-13T14:42:50;40.40;;;21.10;;
20497;SDS011;10407;53.238;10.448;2022-11-13T14:45:25;37.57;;;18.50;;
20497;SDS011;10407;53.238;10.448;2022-11-13T14:48:00;38.10;;;21.30;;
20497;SDS011;10407;53.238;10.448;2022-11-13T14:50:30;31.30;;;18.53;;
20497;SDS011;10407;53.238;10.448;2022-11-13T14:53:02;40.13;;;19.73;;
20497;SDS011;10407;53.238;10.448;2022-11-13T14:55:50;33.40;;;16.80;;
20497;SDS011;10407;53.238;10.448;2022-11-13T14:58:10;49.73;;;29.27;;
20497;SDS011;10407;53.238;10.448;2022-11-13T15:00:39;33.63;;;18.50;;
20497;SDS011;10407;53.238;10.448;2022-11-13T15:03:06;27.30;;;16.00;;
20497;SDS011;10407;53.238;10.448;2022-11-13T15:05:34;31.57;;;16.37;;
20497;SDS011;10407;53.238;10.448;2022-11-13T15:08:01;31.57;;;18.53;;
20497;SDS011;10407;53.238;10.448;2022-11-13T15:10:29;30.20;;;16.50;;
20497;SDS011;10407;53.238;10.448;2022-11-13T15:12:57;36.90;;;16.40;;
20497;SDS011;10407;53.238;10.448;2022-11-13T15:15:26;27.77;;;14.87;;
20497;SDS011;10407;53.238;10.448;2022-11-13T15:17:55;27.27;;;15.70;;
20497;SDS011;10407;53.238;10.448;2022-11-13T15:20:24;33.00;;;17.30;;
20497;SDS011;10407;53.238;10.448;2022-11-13T15:22:53;34.03;;;17.00;;
20497;SDS011;10407;53.238;10.448;2022-11-13T15:25:23;23.90;;;13.70;;
20497;SDS011;10407;53.238;10.448;2022-11-13T15:27:51;25.90;;;14.50;;
20497;SDS011;10407;53.238;10.448;2022-11-13T15:30:18;28.17;;;13.30;;
20497;SDS011;10407;53.238;10.448;2022-11-13T15:32:46;24.13;;;13.90;;
20497;SDS011;10407;53.238;10.448;2022-11-13T15:35:16;25.47;;;13.30;;
20497;SDS011;10407;53.238;10.448;2022-11-13T15:37:45;21.40;;;13.30;;
20497;SDS011;10407;53.238;10.448;2022-11-13T15:40:13;23.07;;;13.13;;
20497;SDS011;10407;53.238;10.448;2022-11-13T15:42:42;23.90;;;13.10;;
20497;SDS011;10407;53.238;10.448;2022-11-13T15:45:13;22.03;;;13.77;;
20497;SDS011;10407;53.238;10.448;2022-11-13T15:47:42;18.83;;;11.07;;
20497;SDS011;10407;53.238;10.448;2022-11-13T15:50:10;23.47;;;12.97;;